Terminal Aerodrome Forecast
Issued by NWS

Home | Current Version | Previous Version | Text Only | Print | Product List | Glossary On
Versions: 1 2 3 4 5 6 7 8 9 10 11 12 13 14 15 16 17 18 19 20 21 22 23 24 25 26 27 28
834
FTUS46 KSEW 291430 AAA
TAFSEA
TAF AMD
KSEA 291430Z 2915/3018 13008KT 2SM -RA BR OVC016
      TEMPO 2915/2916 5SM -RA BR BKN020 OVC035
     FM291800 17013KT P6SM -RA BKN028 OVC050
     FM292100 20015G23KT P6SM -SHRA BKN035 OVC060
     FM300000 22012KT P6SM VCSH SCT035 BKN060 BKN200
     FM300900 22009KT P6SM VCSH OVC025 PROB30 3009/3015 -SHRA=

USA.gov is the U.S. government's official web portal to all federal, state and local government web resources and services.